sensor_id;sensor_type;location;lat;lon;timestamp;P1;durP1;ratioP1;P2;durP2;ratioP2
39208;SDS011;24929;51.982;4.664;2022-12-18T00:01:00;40.90;;;17.92;;
39208;SDS011;24929;51.982;4.664;2022-12-18T00:03:30;52.40;;;24.80;;
39208;SDS011;24929;51.982;4.664;2022-12-18T00:05:59;44.70;;;24.17;;
39208;SDS011;24929;51.982;4.664;2022-12-18T00:08:24;56.55;;;22.80;;
39208;SDS011;24929;51.982;4.664;2022-12-18T00:10:50;49.67;;;23.70;;
39208;SDS011;24929;51.982;4.664;2022-12-18T00:13:15;35.13;;;17.10;;
39208;SDS011;24929;51.982;4.664;2022-12-18T00:15:40;48.80;;;26.42;;
39208;SDS011;24929;51.982;4.664;2022-12-18T00:18:06;51.50;;;22.85;;
39208;SDS011;24929;51.982;4.664;2022-12-18T00:20:35;57.35;;;29.25;;
39208;SDS011;24929;51.982;4.664;2022-12-18T00:23:01;66.85;;;27.02;;
39208;SDS011;24929;51.982;4.664;2022-12-18T00:25:26;40.70;;;20.15;;
39208;SDS011;24929;51.982;4.664;2022-12-18T00:27:52;28.27;;;18.60;;
39208;SDS011;24929;51.982;4.664;2022-12-18T00:30:17;60.47;;;23.55;;
39208;SDS011;24929;51.982;4.664;2022-12-18T00:32:43;40.72;;;19.13;;
39208;SDS011;24929;51.982;4.664;2022-12-18T00:35:08;49.22;;;23.23;;
39208;SDS011;24929;51.982;4.664;2022-12-18T00:37:34;36.40;;;18.70;;
39208;SDS011;24929;51.982;4.664;2022-12-18T00:39:59;34.22;;;16.45;;
39208;SDS011;24929;51.982;4.664;2022-12-18T00:42:24;43.67;;;22.02;;
39208;SDS011;24929;51.982;4.664;2022-12-18T00:45:08;24.20;;;11.32;;
39208;SDS011;24929;51.982;4.664;2022-12-18T00:47:34;60.60;;;19.13;;
39208;SDS011;24929;51.982;4.664;2022-12-18T00:49:59;38.13;;;17.88;;
39208;SDS011;24929;51.982;4.664;2022-12-18T00:52:25;34.75;;;17.00;;
39208;SDS011;24929;51.982;4.664;2022-12-18T00:54:50;64.28;;;25.70;;
39208;SDS011;24929;51.982;4.664;2022-12-18T00:57:15;48.35;;;21.00;;
39208;SDS011;24929;51.982;4.664;2022-12-18T00:59:41;42.58;;;21.33;;
39208;SDS011;24929;51.982;4.664;2022-12-18T01:02:06;44.75;;;23.95;;
39208;SDS011;24929;51.982;4.664;2022-12-18T01:04:32;50.63;;;22.20;;
39208;SDS011;24929;51.982;4.664;2022-12-18T01:06:58;40.55;;;21.77;;
39208;SDS011;24929;51.982;4.664;2022-12-18T01:09:23;48.13;;;16.88;;
39208;SDS011;24929;51.982;4.664;2022-12-18T01:11:48;40.80;;;21.67;;
39208;SDS011;24929;51.982;4.664;2022-12-18T01:14:14;54.03;;;20.80;;
39208;SDS011;24929;51.982;4.664;2022-12-18T01:16:39;33.05;;;19.13;;
39208;SDS011;24929;51.982;4.664;2022-12-18T01:19:05;48.83;;;22.83;;
39208;SDS011;24929;51.982;4.664;2022-12-18T01:21:30;41.35;;;21.52;;
39208;SDS011;24929;51.982;4.664;2022-12-18T01:23:56;35.20;;;20.17;;
39208;SDS011;24929;51.982;4.664;2022-12-18T01:26:21;37.17;;;20.55;;
39208;SDS011;24929;51.982;4.664;2022-12-18T01:28:47;41.95;;;18.02;;
39208;SDS011;24929;51.982;4.664;2022-12-18T01:31:14;27.83;;;16.75;;
39208;SDS011;24929;51.982;4.664;2022-12-18T01:33:47;39.03;;;15.85;;
39208;SDS011;24929;51.982;4.664;2022-12-18T01:36:17;43.75;;;20.60;;
39208;SDS011;24929;51.982;4.664;2022-12-18T01:38:46;45.63;;;19.00;;
39208;SDS011;24929;51.982;4.664;2022-12-18T01:41:12;46.10;;;23.35;;
39208;SDS011;24929;51.982;4.664;2022-12-18T01:43:45;36.03;;;18.42;;
39208;SDS011;24929;51.982;4.664;2022-12-18T01:46:20;23.58;;;14.68;;
39208;SDS011;24929;51.982;4.664;2022-12-18T01:48:51;25.15;;;15.48;;
39208;SDS011;24929;51.982;4.664;2022-12-18T01:51:21;28.33;;;16.40;;
39208;SDS011;24929;51.982;4.664;2022-12-18T01:53:47;35.55;;;18.15;;
39208;SDS011;24929;51.982;4.664;2022-12-18T01:56:14;38.55;;;20.60;;
39208;SDS011;24929;51.982;4.664;2022-12-18T01:58:59;34.28;;;18.33;;
39208;SDS011;24929;51.982;4.664;2022-12-18T02:01:28;43.60;;;24.13;;
39208;SDS011;24929;51.982;4.664;2022-12-18T02:03:55;38.25;;;19.70;;
39208;SDS011;24929;51.982;4.664;2022-12-18T02:09:18;29.42;;;17.35;;
39208;SDS011;24929;51.982;4.664;2022-12-18T02:11:51;13.52;;;8.73;;
39208;SDS011;24929;51.982;4.664;2022-12-18T02:17:01;33.15;;;15.88;;
39208;SDS011;24929;51.982;4.664;2022-12-18T02:22:41;33.30;;;18.13;;
39208;SDS011;24929;51.982;4.664;2022-12-18T02:27:38;31.10;;;18.17;;
39208;SDS011;24929;51.982;4.664;2022-12-18T02:30:06;40.10;;;20.40;;
39208;SDS011;24929;51.982;4.664;2022-12-18T02:32:43;31.58;;;18.35;;
39208;SDS011;24929;51.982;4.664;2022-12-18T02:35:19;57.70;;;20.52;;
39208;SDS011;24929;51.982;4.664;2022-12-18T02:37:48;32.28;;;18.08;;
39208;SDS011;24929;51.982;4.664;2022-12-18T02:40:18;42.88;;;18.35;;
39208;SDS011;24929;51.982;4.664;2022-12-18T02:42:46;25.63;;;17.45;;
39208;SDS011;24929;51.982;4.664;2022-12-18T02:45:12;57.67;;;21.90;;
39208;SDS011;24929;51.982;4.664;2022-12-18T02:47:38;46.42;;;20.77;;
39208;SDS011;24929;51.982;4.664;2022-12-18T02:50:26;33.67;;;17.40;;
39208;SDS011;24929;51.982;4.664;2022-12-18T02:53:30;32.05;;;17.38;;
39208;SDS011;24929;51.982;4.664;2022-12-18T02:58:40;47.00;;;23.20;;
39208;SDS011;24929;51.982;4.664;2022-12-18T03:04:23;36.17;;;21.85;;
39208;SDS011;24929;51.982;4.664;2022-12-18T03:06:54;44.88;;;20.15;;
39208;SDS011;24929;51.982;4.664;2022-12-18T03:09:29;42.50;;;19.60;;
39208;SDS011;24929;51.982;4.664;2022-12-18T03:12:10;40.70;;;18.80;;
39208;SDS011;24929;51.982;4.664;2022-12-18T03:14:47;40.17;;;20.13;;
39208;SDS011;24929;51.982;4.664;2022-12-18T03:17:18;22.20;;;8.05;;
39208;SDS011;24929;51.982;4.664;2022-12-18T03:19:47;36.08;;;18.73;;
39208;SDS011;24929;51.982;4.664;2022-12-18T03:22:16;30.02;;;17.52;;
39208;SDS011;24929;51.982;4.664;2022-12-18T03:24:42;27.45;;;16.27;;
39208;SDS011;24929;51.982;4.664;2022-12-18T03:27:10;37.63;;;19.15;;
39208;SDS011;24929;51.982;4.664;2022-12-18T03:29:40;35.22;;;18.02;;
39208;SDS011;24929;51.982;4.664;2022-12-18T03:32:11;21.77;;;12.88;;
39208;SDS011;24929;51.982;4.664;2022-12-18T03:34:43;36.67;;;20.13;;
39208;SDS011;24929;51.982;4.664;2022-12-18T03:37:11;39.75;;;19.35;;
39208;SDS011;24929;51.982;4.664;2022-12-18T03:39:37;32.38;;;17.73;;
39208;SDS011;24929;51.982;4.664;2022-12-18T03:44:55;24.48;;;15.88;;
39208;SDS011;24929;51.982;4.664;2022-12-18T03:53:00;37.30;;;15.80;;
39208;SDS011;24929;51.982;4.664;2022-12-18T03:55:38;32.13;;;16.35;;
39208;SDS011;24929;51.982;4.664;2022-12-18T03:58:05;39.03;;;16.35;;
39208;SDS011;24929;51.982;4.664;2022-12-18T04:00:32;33.60;;;18.08;;
39208;SDS011;24929;51.982;4.664;2022-12-18T04:02:59;24.55;;;16.98;;
39208;SDS011;24929;51.982;4.664;2022-12-18T04:05:26;14.00;;;9.02;;
39208;SDS011;24929;51.982;4.664;2022-12-18T04:07:53;36.88;;;17.83;;
39208;SDS011;24929;51.982;4.664;2022-12-18T04:10:21;23.13;;;15.20;;
39208;SDS011;24929;51.982;4.664;2022-12-18T04:12:47;38.13;;;17.98;;
39208;SDS011;24929;51.982;4.664;2022-12-18T04:15:12;28.58;;;17.15;;
39208;SDS011;24929;51.982;4.664;2022-12-18T04:17:38;29.48;;;18.05;;
39208;SDS011;24929;51.982;4.664;2022-12-18T04:20:12;33.47;;;17.85;;
39208;SDS011;24929;51.982;4.664;2022-12-18T04:22:37;41.92;;;21.58;;
39208;SDS011;24929;51.982;4.664;2022-12-18T04:25:02;31.75;;;20.55;;
39208;SDS011;24929;51.982;4.664;2022-12-18T04:27:28;23.35;;;16.30;;
39208;SDS011;24929;51.982;4.664;2022-12-18T04:29:54;45.83;;;21.73;;
39208;SDS011;24929;51.982;4.664;2022-12-18T04:32:19;29.35;;;16.13;;
39208;SDS011;24929;51.982;4.664;2022-12-18T04:34:45;44.85;;;19.77;;
39208;SDS011;24929;51.982;4.664;2022-12-18T04:37:10;31.95;;;20.80;;
39208;SDS011;24929;51.982;4.664;2022-12-18T04:39:36;35.38;;;19.85;;
39208;SDS011;24929;51.982;4.664;2022-12-18T04:42:01;31.35;;;19.52;;
39208;SDS011;24929;51.982;4.664;2022-12-18T04:44:27;26.60;;;17.30;;
39208;SDS011;24929;51.982;4.664;2022-12-18T04:46:53;29.35;;;17.15;;
39208;SDS011;24929;51.982;4.664;2022-12-18T04:49:18;37.78;;;20.38;;
39208;SDS011;24929;51.982;4.664;2022-12-18T04:51:43;32.95;;;20.20;;
39208;SDS011;24929;51.982;4.664;2022-12-18T04:54:09;29.27;;;19.80;;
39208;SDS011;24929;51.982;4.664;2022-12-18T04:56:34;25.08;;;18.23;;
39208;SDS011;24929;51.982;4.664;2022-12-18T04:58:59;34.95;;;18.65;;
39208;SDS011;24929;51.982;4.664;2022-12-18T05:01:25;30.73;;;18.20;;
39208;SDS011;24929;51.982;4.664;2022-12-18T05:03:51;27.80;;;18.50;;
39208;SDS011;24929;51.982;4.664;2022-12-18T05:06:17;33.42;;;18.92;;
39208;SDS011;24929;51.982;4.664;2022-12-18T05:08:42;34.08;;;19.92;;
39208;SDS011;24929;51.982;4.664;2022-12-18T05:11:09;39.65;;;20.10;;
39208;SDS011;24929;51.982;4.664;2022-12-18T05:13:36;36.38;;;22.30;;
39208;SDS011;24929;51.982;4.664;2022-12-18T05:16:03;35.60;;;19.48;;
39208;SDS011;24929;51.982;4.664;2022-12-18T05:18:29;40.25;;;19.48;;
39208;SDS011;24929;51.982;4.664;2022-12-18T05:20:55;31.92;;;18.00;;
39208;SDS011;24929;51.982;4.664;2022-12-18T05:23:22;28.60;;;17.42;;
39208;SDS011;24929;51.982;4.664;2022-12-18T05:25:54;25.90;;;17.33;;
39208;SDS011;24929;51.982;4.664;2022-12-18T05:28:22;30.30;;;19.42;;
39208;SDS011;24929;51.982;4.664;2022-12-18T05:30:49;33.35;;;19.08;;
39208;SDS011;24929;51.982;4.664;2022-12-18T05:33:16;33.42;;;18.52;;
39208;SDS011;24929;51.982;4.664;2022-12-18T05:35:42;37.47;;;20.80;;
39208;SDS011;24929;51.982;4.664;2022-12-18T05:38:08;35.20;;;16.23;;
39208;SDS011;24929;51.982;4.664;2022-12-18T05:40:33;33.55;;;17.08;;
39208;SDS011;24929;51.982;4.664;2022-12-18T05:42:59;35.35;;;17.65;;
39208;SDS011;24929;51.982;4.664;2022-12-18T05:45:24;28.65;;;17.17;;
39208;SDS011;24929;51.982;4.664;2022-12-18T05:47:49;28.83;;;14.75;;
39208;SDS011;24929;51.982;4.664;2022-12-18T05:50:15;25.67;;;16.50;;
39208;SDS011;24929;51.982;4.664;2022-12-18T05:52:40;33.55;;;19.05;;
39208;SDS011;24929;51.982;4.664;2022-12-18T05:55:06;32.58;;;16.05;;
39208;SDS011;24929;51.982;4.664;2022-12-18T05:57:32;34.80;;;20.10;;
39208;SDS011;24929;51.982;4.664;2022-12-18T05:59:57;33.03;;;19.98;;
39208;SDS011;24929;51.982;4.664;2022-12-18T06:02:22;42.90;;;19.52;;
39208;SDS011;24929;51.982;4.664;2022-12-18T06:04:48;33.40;;;20.05;;
39208;SDS011;24929;51.982;4.664;2022-12-18T06:07:14;24.70;;;16.27;;
39208;SDS011;24929;51.982;4.664;2022-12-18T06:09:39;24.42;;;15.75;;
39208;SDS011;24929;51.982;4.664;2022-12-18T06:12:05;20.83;;;16.33;;
39208;SDS011;24929;51.982;4.664;2022-12-18T06:14:30;22.55;;;14.30;;
39208;SDS011;24929;51.982;4.664;2022-12-18T06:16:56;23.50;;;14.18;;
39208;SDS011;24929;51.982;4.664;2022-12-18T06:19:21;26.23;;;15.50;;
39208;SDS011;24929;51.982;4.664;2022-12-18T06:21:47;25.17;;;16.05;;
39208;SDS011;24929;51.982;4.664;2022-12-18T06:24:12;28.75;;;15.77;;
39208;SDS011;24929;51.982;4.664;2022-12-18T06:26:38;21.02;;;14.05;;
39208;SDS011;24929;51.982;4.664;2022-12-18T06:29:03;26.02;;;15.32;;
39208;SDS011;24929;51.982;4.664;2022-12-18T06:31:29;25.00;;;16.15;;
39208;SDS011;24929;51.982;4.664;2022-12-18T06:33:54;21.80;;;14.70;;
39208;SDS011;24929;51.982;4.664;2022-12-18T06:36:20;14.75;;;10.68;;
39208;SDS011;24929;51.982;4.664;2022-12-18T06:38:46;17.63;;;13.50;;
39208;SDS011;24929;51.982;4.664;2022-12-18T06:41:12;24.15;;;13.73;;
39208;SDS011;24929;51.982;4.664;2022-12-18T06:43:39;22.20;;;14.85;;
39208;SDS011;24929;51.982;4.664;2022-12-18T06:46:05;19.25;;;14.60;;
39208;SDS011;24929;51.982;4.664;2022-12-18T06:48:31;13.38;;;10.23;;
39208;SDS011;24929;51.982;4.664;2022-12-18T06:50:57;21.98;;;11.93;;
39208;SDS011;24929;51.982;4.664;2022-12-18T06:53:23;29.73;;;13.55;;
39208;SDS011;24929;51.982;4.664;2022-12-18T06:55:49;17.13;;;12.55;;
39208;SDS011;24929;51.982;4.664;2022-12-18T06:58:14;17.58;;;10.38;;
39208;SDS011;24929;51.982;4.664;2022-12-18T07:00:40;17.00;;;11.32;;
39208;SDS011;24929;51.982;4.664;2022-12-18T07:03:06;18.10;;;11.70;;
39208;SDS011;24929;51.982;4.664;2022-12-18T07:05:31;16.77;;;11.73;;
39208;SDS011;24929;51.982;4.664;2022-12-18T07:07:57;13.70;;;7.65;;
39208;SDS011;24929;51.982;4.664;2022-12-18T07:10:22;21.15;;;13.95;;
39208;SDS011;24929;51.982;4.664;2022-12-18T07:12:48;25.30;;;14.73;;
39208;SDS011;24929;51.982;4.664;2022-12-18T07:15:13;20.17;;;11.13;;
39208;SDS011;24929;51.982;4.664;2022-12-18T07:17:38;23.00;;;9.95;;
39208;SDS011;24929;51.982;4.664;2022-12-18T07:20:04;15.73;;;10.80;;
39208;SDS011;24929;51.982;4.664;2022-12-18T07:22:29;22.17;;;12.05;;
39208;SDS011;24929;51.982;4.664;2022-12-18T07:24:55;19.85;;;11.60;;
39208;SDS011;24929;51.982;4.664;2022-12-18T07:27:20;18.40;;;12.75;;
39208;SDS011;24929;51.982;4.664;2022-12-18T07:29:46;21.02;;;12.18;;
39208;SDS011;24929;51.982;4.664;2022-12-18T07:32:11;38.03;;;13.02;;
39208;SDS011;24929;51.982;4.664;2022-12-18T07:34:37;16.48;;;11.70;;
39208;SDS011;24929;51.982;4.664;2022-12-18T07:37:02;20.98;;;12.20;;
39208;SDS011;24929;51.982;4.664;2022-12-18T07:39:28;18.63;;;13.23;;
39208;SDS011;24929;51.982;4.664;2022-12-18T07:41:53;17.05;;;10.85;;
39208;SDS011;24929;51.982;4.664;2022-12-18T07:44:37;17.65;;;8.25;;
39208;SDS011;24929;51.982;4.664;2022-12-18T07:47:02;15.98;;;11.65;;
39208;SDS011;24929;51.982;4.664;2022-12-18T07:49:28;10.85;;;8.15;;
39208;SDS011;24929;51.982;4.664;2022-12-18T07:51:55;18.52;;;10.52;;
39208;SDS011;24929;51.982;4.664;2022-12-18T07:54:21;13.85;;;8.02;;
39208;SDS011;24929;51.982;4.664;2022-12-18T07:56:47;20.33;;;9.43;;
39208;SDS011;24929;51.982;4.664;2022-12-18T07:59:13;22.38;;;10.43;;
39208;SDS011;24929;51.982;4.664;2022-12-18T08:01:38;14.02;;;11.35;;
39208;SDS011;24929;51.982;4.664;2022-12-18T08:04:04;11.27;;;9.15;;
39208;SDS011;24929;51.982;4.664;2022-12-18T08:06:29;15.88;;;9.00;;
39208;SDS011;24929;51.982;4.664;2022-12-18T08:08:55;13.50;;;10.80;;
39208;SDS011;24929;51.982;4.664;2022-12-18T08:11:21;17.45;;;10.77;;
39208;SDS011;24929;51.982;4.664;2022-12-18T08:13:48;15.45;;;12.43;;
39208;SDS011;24929;51.982;4.664;2022-12-18T08:16:13;17.17;;;12.20;;
39208;SDS011;24929;51.982;4.664;2022-12-18T08:18:39;19.77;;;12.35;;
39208;SDS011;24929;51.982;4.664;2022-12-18T08:21:46;16.67;;;9.98;;
39208;SDS011;24929;51.982;4.664;2022-12-18T08:23:54;7.68;;;5.00;;
39208;SDS011;24929;51.982;4.664;2022-12-18T08:26:23;17.52;;;11.45;;
39208;SDS011;24929;51.982;4.664;2022-12-18T08:28:50;17.77;;;10.80;;
39208;SDS011;24929;51.982;4.664;2022-12-18T08:31:16;12.82;;;9.35;;
39208;SDS011;24929;51.982;4.664;2022-12-18T08:33:42;22.50;;;10.15;;
39208;SDS011;24929;51.982;4.664;2022-12-18T08:36:08;16.30;;;10.82;;
39208;SDS011;24929;51.982;4.664;2022-12-18T08:38:34;11.77;;;9.88;;
39208;SDS011;24929;51.982;4.664;2022-12-18T08:43:26;18.60;;;11.55;;
39208;SDS011;24929;51.982;4.664;2022-12-18T08:52:54;14.25;;;9.43;;
39208;SDS011;24929;51.982;4.664;2022-12-18T08:55:20;18.17;;;11.88;;
39208;SDS011;24929;51.982;4.664;2022-12-18T08:57:47;15.65;;;11.90;;
39208;SDS011;24929;51.982;4.664;2022-12-18T09:00:14;20.83;;;13.75;;
39208;SDS011;24929;51.982;4.664;2022-12-18T09:02:40;12.30;;;10.68;;
39208;SDS011;24929;51.982;4.664;2022-12-18T09:05:05;6.13;;;5.13;;
39208;SDS011;24929;51.982;4.664;2022-12-18T09:07:31;17.73;;;11.77;;
39208;SDS011;24929;51.982;4.664;2022-12-18T09:09:56;18.40;;;12.80;;
39208;SDS011;24929;51.982;4.664;2022-12-18T09:12:22;16.42;;;11.82;;
39208;SDS011;24929;51.982;4.664;2022-12-18T09:14:47;17.48;;;12.13;;
39208;SDS011;24929;51.982;4.664;2022-12-18T09:23:39;19.60;;;12.68;;
39208;SDS011;24929;51.982;4.664;2022-12-18T09:26:05;10.98;;;8.35;;
39208;SDS011;24929;51.982;4.664;2022-12-18T09:28:31;16.48;;;10.95;;
39208;SDS011;24929;51.982;4.664;2022-12-18T09:30:57;14.43;;;10.10;;
39208;SDS011;24929;51.982;4.664;2022-12-18T09:33:23;17.92;;;11.80;;
39208;SDS011;24929;51.982;4.664;2022-12-18T09:35:49;15.32;;;10.43;;
39208;SDS011;24929;51.982;4.664;2022-12-18T09:38:16;16.98;;;11.07;;
39208;SDS011;24929;51.982;4.664;2022-12-18T09:40:46;14.43;;;10.32;;
39208;SDS011;24929;51.982;4.664;2022-12-18T09:43:17;16.30;;;9.68;;
39208;SDS011;24929;51.982;4.664;2022-12-18T09:45:58;18.00;;;12.05;;
39208;SDS011;24929;51.982;4.664;2022-12-18T09:48:40;12.35;;;10.30;;
39208;SDS011;24929;51.982;4.664;2022-12-18T09:51:11;13.13;;;8.75;;
39208;SDS011;24929;51.982;4.664;2022-12-18T09:53:38;13.80;;;9.55;;
39208;SDS011;24929;51.982;4.664;2022-12-18T09:56:06;14.88;;;12.15;;
39208;SDS011;24929;51.982;4.664;2022-12-18T09:58:41;16.55;;;10.98;;
39208;SDS011;24929;51.982;4.664;2022-12-18T10:01:14;19.92;;;12.18;;
39208;SDS011;24929;51.982;4.664;2022-12-18T10:03:43;20.27;;;12.15;;
39208;SDS011;24929;51.982;4.664;2022-12-18T10:06:13;22.45;;;14.05;;
39208;SDS011;24929;51.982;4.664;2022-12-18T10:09:07;15.07;;;11.50;;
39208;SDS011;24929;51.982;4.664;2022-12-18T10:19:55;15.80;;;10.45;;
39208;SDS011;24929;51.982;4.664;2022-12-18T10:24:53;17.58;;;12.02;;
39208;SDS011;24929;51.982;4.664;2022-12-18T10:31:32;13.98;;;9.50;;
39208;SDS011;24929;51.982;4.664;2022-12-18T10:33:57;15.35;;;10.65;;
39208;SDS011;24929;51.982;4.664;2022-12-18T10:36:23;19.63;;;11.43;;
39208;SDS011;24929;51.982;4.664;2022-12-18T10:38:49;11.27;;;8.30;;
39208;SDS011;24929;51.982;4.664;2022-12-18T10:43:43;16.13;;;12.27;;
39208;SDS011;24929;51.982;4.664;2022-12-18T10:48:48;23.08;;;13.40;;
39208;SDS011;24929;51.982;4.664;2022-12-18T10:51:31;23.75;;;12.20;;
39208;SDS011;24929;51.982;4.664;2022-12-18T10:54:00;18.40;;;12.10;;
39208;SDS011;24929;51.982;4.664;2022-12-18T11:03:31;16.88;;;12.35;;
39208;SDS011;24929;51.982;4.664;2022-12-18T11:06:12;15.48;;;11.70;;
39208;SDS011;24929;51.982;4.664;2022-12-18T11:08:39;21.40;;;13.80;;
39208;SDS011;24929;51.982;4.664;2022-12-18T11:11:09;26.48;;;15.32;;
39208;SDS011;24929;51.982;4.664;2022-12-18T11:13:48;15.18;;;11.93;;
39208;SDS011;24929;51.982;4.664;2022-12-18T11:16:22;13.30;;;9.07;;
39208;SDS011;24929;51.982;4.664;2022-12-18T11:18:48;17.60;;;11.32;;
39208;SDS011;24929;51.982;4.664;2022-12-18T11:21:14;17.95;;;11.25;;
39208;SDS011;24929;51.982;4.664;2022-12-18T11:23:52;16.38;;;12.32;;
39208;SDS011;24929;51.982;4.664;2022-12-18T11:26:18;14.05;;;10.52;;
39208;SDS011;24929;51.982;4.664;2022-12-18T11:28:52;21.67;;;14.13;;
39208;SDS011;24929;51.982;4.664;2022-12-18T11:31:41;16.90;;;13.05;;
39208;SDS011;24929;51.982;4.664;2022-12-18T11:34:11;17.02;;;12.30;;
39208;SDS011;24929;51.982;4.664;2022-12-18T11:36:44;18.05;;;13.48;;
39208;SDS011;24929;51.982;4.664;2022-12-18T11:39:14;18.15;;;10.60;;
39208;SDS011;24929;51.982;4.664;2022-12-18T11:44:53;17.38;;;14.02;;
39208;SDS011;24929;51.982;4.664;2022-12-18T11:50:15;8.18;;;7.47;;
39208;SDS011;24929;51.982;4.664;2022-12-18T11:53:11;20.90;;;12.52;;
39208;SDS011;24929;51.982;4.664;2022-12-18T11:55:47;24.67;;;14.80;;
39208;SDS011;24929;51.982;4.664;2022-12-18T12:04:28;20.15;;;15.38;;
39208;SDS011;24929;51.982;4.664;2022-12-18T12:21:02;15.35;;;11.18;;
39208;SDS011;24929;51.982;4.664;2022-12-18T12:26:08;20.73;;;13.00;;
39208;SDS011;24929;51.982;4.664;2022-12-18T12:38:57;20.52;;;13.77;;
39208;SDS011;24929;51.982;4.664;2022-12-18T12:41:31;21.25;;;13.43;;
39208;SDS011;24929;51.982;4.664;2022-12-18T12:44:22;20.08;;;14.27;;
39208;SDS011;24929;51.982;4.664;2022-12-18T12:46:56;20.83;;;14.07;;
39208;SDS011;24929;51.982;4.664;2022-12-18T12:49:26;23.38;;;14.73;;
39208;SDS011;24929;51.982;4.664;2022-12-18T12:51:58;19.58;;;14.77;;
39208;SDS011;24929;51.982;4.664;2022-12-18T12:54:29;17.20;;;13.82;;
39208;SDS011;24929;51.982;4.664;2022-12-18T13:08:02;19.05;;;14.02;;
39208;SDS011;24929;51.982;4.664;2022-12-18T13:13:08;16.05;;;11.13;;
39208;SDS011;24929;51.982;4.664;2022-12-18T13:15:41;9.75;;;6.35;;
39208;SDS011;24929;51.982;4.664;2022-12-18T13:18:13;22.40;;;13.57;;
39208;SDS011;24929;51.982;4.664;2022-12-18T13:20:45;21.63;;;13.05;;
39208;SDS011;24929;51.982;4.664;2022-12-18T13:25:53;21.02;;;15.23;;
39208;SDS011;24929;51.982;4.664;2022-12-18T13:34:09;21.40;;;13.60;;
39208;SDS011;24929;51.982;4.664;2022-12-18T13:36:38;25.05;;;15.65;;
39208;SDS011;24929;51.982;4.664;2022-12-18T13:39:11;22.45;;;11.95;;
39208;SDS011;24929;51.982;4.664;2022-12-18T13:41:40;18.58;;;15.23;;
39208;SDS011;24929;51.982;4.664;2022-12-18T13:44:13;18.92;;;13.65;;
39208;SDS011;24929;51.982;4.664;2022-12-18T13:50:10;12.60;;;10.07;;
39208;SDS011;24929;51.982;4.664;2022-12-18T13:52:50;18.88;;;11.10;;
39208;SDS011;24929;51.982;4.664;2022-12-18T13:55:18;18.88;;;12.50;;
39208;SDS011;24929;51.982;4.664;2022-12-18T13:57:45;12.25;;;9.05;;
39208;SDS011;24929;51.982;4.664;2022-12-18T14:00:22;24.17;;;14.70;;
39208;SDS011;24929;51.982;4.664;2022-12-18T14:02:53;19.10;;;12.57;;
39208;SDS011;24929;51.982;4.664;2022-12-18T14:07:49;16.75;;;12.32;;
39208;SDS011;24929;51.982;4.664;2022-12-18T14:10:15;26.70;;;15.70;;
39208;SDS011;24929;51.982;4.664;2022-12-18T14:12:44;14.48;;;9.60;;
39208;SDS011;24929;51.982;4.664;2022-12-18T14:15:27;19.85;;;15.10;;
39208;SDS011;24929;51.982;4.664;2022-12-18T14:20:48;17.95;;;13.18;;
39208;SDS011;24929;51.982;4.664;2022-12-18T14:25:53;21.20;;;15.85;;
39208;SDS011;24929;51.982;4.664;2022-12-18T14:28:18;19.80;;;12.95;;
39208;SDS011;24929;51.982;4.664;2022-12-18T14:30:45;18.45;;;12.63;;
39208;SDS011;24929;51.982;4.664;2022-12-18T14:35:41;24.65;;;15.02;;
39208;SDS011;24929;51.982;4.664;2022-12-18T14:40:52;19.48;;;13.63;;
39208;SDS011;24929;51.982;4.664;2022-12-18T14:43:39;14.75;;;11.30;;
39208;SDS011;24929;51.982;4.664;2022-12-18T14:46:25;22.30;;;11.98;;
39208;SDS011;24929;51.982;4.664;2022-12-18T14:48:57;23.42;;;13.23;;
39208;SDS011;24929;51.982;4.664;2022-12-18T14:51:26;15.80;;;11.35;;
39208;SDS011;24929;51.982;4.664;2022-12-18T14:53:54;20.75;;;11.00;;
39208;SDS011;24929;51.982;4.664;2022-12-18T14:56:23;22.65;;;15.65;;
39208;SDS011;24929;51.982;4.664;2022-12-18T14:58:55;22.92;;;14.07;;
39208;SDS011;24929;51.982;4.664;2022-12-18T15:01:36;20.67;;;12.43;;
39208;SDS011;24929;51.982;4.664;2022-12-18T15:04:03;18.35;;;13.50;;
39208;SDS011;24929;51.982;4.664;2022-12-18T15:06:34;20.33;;;13.43;;
39208;SDS011;24929;51.982;4.664;2022-12-18T15:09:02;20.02;;;13.85;;
39208;SDS011;24929;51.982;4.664;2022-12-18T15:11:34;15.38;;;8.63;;
39208;SDS011;24929;51.982;4.664;2022-12-18T15:16:55;20.83;;;12.70;;
39208;SDS011;24929;51.982;4.664;2022-12-18T15:19:25;19.05;;;13.60;;
39208;SDS011;24929;51.982;4.664;2022-12-18T15:22:03;16.92;;;12.50;;
39208;SDS011;24929;51.982;4.664;2022-12-18T15:24:30;22.63;;;13.13;;
39208;SDS011;24929;51.982;4.664;2022-12-18T15:26:57;18.05;;;12.55;;
39208;SDS011;24929;51.982;4.664;2022-12-18T15:29:24;15.65;;;12.18;;
39208;SDS011;24929;51.982;4.664;2022-12-18T15:32:10;18.45;;;12.23;;
39208;SDS011;24929;51.982;4.664;2022-12-18T15:34:44;16.38;;;11.27;;
39208;SDS011;24929;51.982;4.664;2022-12-18T15:37:09;14.68;;;10.43;;
39208;SDS011;24929;51.982;4.664;2022-12-18T15:39:34;26.27;;;12.77;;
39208;SDS011;24929;51.982;4.664;2022-12-18T15:42:01;15.90;;;12.65;;
39208;SDS011;24929;51.982;4.664;2022-12-18T15:44:45;22.00;;;14.10;;
39208;SDS011;24929;51.982;4.664;2022-12-18T15:47:11;20.40;;;12.70;;
39208;SDS011;24929;51.982;4.664;2022-12-18T15:49:38;13.15;;;10.40;;
39208;SDS011;24929;51.982;4.664;2022-12-18T15:52:04;18.33;;;13.10;;
39208;SDS011;24929;51.982;4.664;2022-12-18T15:54:30;18.35;;;13.07;;
39208;SDS011;24929;51.982;4.664;2022-12-18T15:57:15;17.38;;;12.88;;
39208;SDS011;24929;51.982;4.664;2022-12-18T16:03:20;21.52;;;11.98;;
39208;SDS011;24929;51.982;4.664;2022-12-18T16:05:45;19.55;;;12.93;;
39208;SDS011;24929;51.982;4.664;2022-12-18T16:08:10;15.18;;;12.85;;
39208;SDS011;24929;51.982;4.664;2022-12-18T16:10:36;28.73;;;14.55;;
39208;SDS011;24929;51.982;4.664;2022-12-18T16:13:01;21.63;;;13.25;;
39208;SDS011;24929;51.982;4.664;2022-12-18T16:15:26;21.63;;;10.05;;
39208;SDS011;24929;51.982;4.664;2022-12-18T16:17:52;17.05;;;13.18;;
39208;SDS011;24929;51.982;4.664;2022-12-18T16:20:19;7.80;;;6.55;;
39208;SDS011;24929;51.982;4.664;2022-12-18T16:22:46;16.20;;;10.90;;
39208;SDS011;24929;51.982;4.664;2022-12-18T16:27:46;27.33;;;9.73;;
39208;SDS011;24929;51.982;4.664;2022-12-18T16:30:16;15.27;;;10.05;;
39208;SDS011;24929;51.982;4.664;2022-12-18T16:32:43;12.73;;;9.02;;
39208;SDS011;24929;51.982;4.664;2022-12-18T16:35:13;10.55;;;8.93;;
39208;SDS011;24929;51.982;4.664;2022-12-18T16:37:40;19.63;;;13.98;;
39208;SDS011;24929;51.982;4.664;2022-12-18T16:40:06;22.55;;;13.38;;
39208;SDS011;24929;51.982;4.664;2022-12-18T16:42:34;12.02;;;8.07;;
39208;SDS011;24929;51.982;4.664;2022-12-18T16:45:01;24.48;;;14.45;;
39208;SDS011;24929;51.982;4.664;2022-12-18T16:47:27;15.20;;;8.95;;
39208;SDS011;24929;51.982;4.664;2022-12-18T16:49:53;18.55;;;12.45;;
39208;SDS011;24929;51.982;4.664;2022-12-18T16:52:18;11.13;;;7.78;;
39208;SDS011;24929;51.982;4.664;2022-12-18T16:54:44;17.98;;;13.13;;
39208;SDS011;24929;51.982;4.664;2022-12-18T16:57:13;20.75;;;11.38;;
39208;SDS011;24929;51.982;4.664;2022-12-18T16:59:41;22.58;;;13.85;;
39208;SDS011;24929;51.982;4.664;2022-12-18T17:02:17;18.15;;;12.35;;
39208;SDS011;24929;51.982;4.664;2022-12-18T17:04:47;21.38;;;12.95;;
39208;SDS011;24929;51.982;4.664;2022-12-18T17:07:13;25.58;;;13.07;;